Time;durP1;ratioP1;P1;durP2;ratioP2;P2;SDS_P1;SDS_P2;PMS_P1;PMS_P2;Temp;Humidity;BMP_temperature;BMP_pressure;BME280_temperature;BME280_humidity;BME280_pressure;Samples;Min_cycle;Max_cycle;Signal;HPM_P1;HPM_P2
2022/05/25 00:00:18;;;;;;;10.20;7.88;;;13.80;99.90;;;;;;10340632;28;20377;-80
2022/05/25 00:05:40;;;;;;;10.35;8.63;;;13.80;99.90;;;;;;10355223;28;20482;-80
2022/05/25 00:11:02;;;;;;;10.63;8.57;;;13.80;99.90;;;;;;10353498;28;20514;-80
2022/05/25 00:16:24;;;;;;;9.52;8.23;;;13.80;99.90;;;;;;10354963;28;20598;-81
2022/05/25 00:21:45;;;;;;;11.63;8.60;;;13.80;99.90;;;;;;10300756;28;20264;-80
2022/05/25 00:27:07;;;;;;;11.40;9.20;;;13.90;99.90;;;;;;10334987;28;20201;-80
2022/05/25 00:32:28;;;;;;;9.75;8.18;;;13.90;99.90;;;;;;10354114;28;20192;-80
2022/05/25 00:37:50;;;;;;;8.90;7.45;;;13.90;99.90;;;;;;10340094;28;20276;-80
2022/05/25 00:43:12;;;;;;;8.38;7.55;;;14.00;99.90;;;;;;10354297;28;20217;-81
2022/05/25 00:48:48;;;;;;;8.63;7.25;;;14.00;99.90;;;;;;10353644;28;20526;-80
2022/05/25 00:54:13;;;;;;;9.63;8.60;;;14.10;99.90;;;;;;10353976;28;20199;-80
2022/05/25 00:59:53;;;;;;;9.98;8.55;;;14.10;99.90;;;;;;10353502;28;20219;-81
2022/05/25 01:05:18;;;;;;;11.73;9.27;;;14.10;99.90;;;;;;10347211;28;20235;-81
2022/05/25 01:10:57;;;;;;;13.20;10.63;;;14.00;99.90;;;;;;10346461;28;20266;-81
2022/05/25 01:16:28;;;;;;;11.85;10.02;;;14.00;99.90;;;;;;10347714;28;20207;-81
2022/05/25 01:22:14;;;;;;;10.20;8.80;;;14.00;99.90;;;;;;10321113;28;20248;-80
2022/05/25 01:27:40;;;;;;;11.70;8.68;;;14.00;99.90;;;;;;10341286;28;20224;-80
2022/05/25 01:33:07;;;;;;;10.98;9.27;;;14.00;99.90;;;;;;10333374;28;20494;-80
2022/05/25 01:38:53;;;;;;;12.30;10.60;;;14.00;99.90;;;;;;10346545;28;20303;-80
2022/05/25 01:44:22;;;;;;;13.60;10.85;;;14.00;99.90;;;;;;10360117;28;20292;-80
2022/05/25 01:49:51;;;;;;;12.95;9.88;;;14.00;99.90;;;;;;10332238;28;20232;-80
2022/05/25 01:55:21;;;;;;;11.63;10.18;;;14.00;99.90;;;;;;10359660;28;20267;-79
2022/05/25 02:00:52;;;;;;;14.93;13.23;;;14.00;99.90;;;;;;10345430;28;20303;-80
2022/05/25 02:06:25;;;;;;;16.70;13.82;;;14.10;99.90;;;;;;10359276;28;20211;-80
2022/05/25 02:12:00;;;;;;;17.45;13.95;;;14.10;99.90;;;;;;10358351;28;20228;-80
2022/05/25 02:17:31;;;;;;;18.40;14.77;;;14.10;99.90;;;;;;10345209;28;20283;-79
2022/05/25 02:23:02;;;;;;;17.00;15.05;;;14.10;99.90;;;;;;10358505;28;20205;-80
2022/05/25 02:28:40;;;;;;;17.52;14.98;;;14.10;99.90;;;;;;10358434;28;20219;-80
2022/05/25 02:34:04;;;;;;;17.77;14.95;;;14.10;99.90;;;;;;10358391;28;20195;-80
2022/05/25 02:39:25;;;;;;;17.42;14.85;;;14.10;99.90;;;;;;10357203;28;20236;-80
2022/05/25 02:44:47;;;;;;;23.50;14.13;;;14.10;99.90;;;;;;10358174;28;20528;-80
2022/05/25 02:50:08;;;;;;;14.15;12.48;;;14.10;99.90;;;;;;10357088;28;20293;-80
2022/05/25 02:55:31;;;;;;;12.57;11.20;;;14.10;99.90;;;;;;10343676;28;20497;-80
2022/05/25 03:00:52;;;;;;;13.43;11.05;;;14.10;99.90;;;;;;10329689;28;20209;-80
2022/05/25 03:06:14;;;;;;;14.10;10.98;;;14.00;99.90;;;;;;10356721;28;20206;-79
2022/05/25 03:11:35;;;;;;;12.48;10.52;;;14.00;99.90;;;;;;10357132;28;20224;-80
2022/05/25 03:16:58;;;;;;;12.90;10.77;;;14.00;99.90;;;;;;10342643;28;20203;-81
2022/05/25 03:22:19;;;;;;;12.07;8.93;;;14.00;99.90;;;;;;10315979;28;20224;-81
2022/05/25 03:27:41;;;;;;;10.82;9.38;;;13.90;99.90;;;;;;10318175;28;20220;-81
2022/05/25 03:33:02;;;;;;;9.52;8.40;;;13.80;99.90;;;;;;10355918;28;20460;-80
2022/05/25 03:38:23;;;;;;;10.55;8.43;;;13.70;99.90;;;;;;10341765;28;20529;-80
2022/05/25 03:43:46;;;;;;;11.73;8.65;;;13.70;99.90;;;;;;10328304;28;20204;-80
2022/05/25 03:49:07;;;;;;;12.35;9.05;;;13.70;99.90;;;;;;10341123;28;20521;-80
2022/05/25 03:54:28;;;;;;;8.57;7.55;;;13.80;99.90;;;;;;10355292;28;20200;-81
2022/05/25 03:59:50;;;;;;;10.13;8.00;;;13.70;99.90;;;;;;10354895;28;20232;-80
2022/05/25 04:05:12;;;;;;;10.27;8.33;;;13.70;99.90;;;;;;10354694;28;20199;-81
2022/05/25 04:10:34;;;;;;;11.20;7.97;;;13.70;99.90;;;;;;10354005;28;20223;-80
2022/05/25 04:15:56;;;;;;;8.48;7.65;;;13.70;99.90;;;;;;10327165;28;20211;-80
2022/05/25 04:21:17;;;;;;;8.48;7.00;;;13.60;99.90;;;;;;10353848;28;20199;-80
2022/05/25 04:26:40;;;;;;;7.15;5.93;;;13.60;99.90;;;;;;10355413;28;20191;-80
2022/05/25 04:32:01;;;;;;;7.93;6.70;;;13.60;99.90;;;;;;10340013;28;20223;-82
2022/05/25 04:43:06;;;;;;;7.53;6.35;;;13.70;99.90;;;;;;10322251;28;20209;-80
2022/05/25 04:48:28;;;;;;;6.75;6.05;;;13.80;99.90;;;;;;10329596;28;20242;-79
2022/05/25 04:53:49;;;;;;;6.15;5.55;;;13.90;99.90;;;;;;10348367;28;20220;-80
2022/05/25 04:59:10;;;;;;;6.15;5.53;;;14.00;99.90;;;;;;10348314;28;20284;-80
2022/05/25 05:04:31;;;;;;;4.93;4.43;;;14.00;99.90;;;;;;10361837;28;20200;-80
2022/05/25 05:09:53;;;;;;;5.10;4.60;;;14.20;99.90;;;;;;10360689;28;20280;-81
2022/05/25 05:15:14;;;;;;;7.07;4.97;;;14.40;99.90;;;;;;10307223;28;20199;-80
2022/05/25 05:20:37;;;;;;;5.13;4.63;;;14.50;99.90;;;;;;10344825;28;20287;-80
2022/05/25 05:26:01;;;;;;;3.75;3.45;;;14.70;99.90;;;;;;10347541;28;20204;-80
2022/05/25 05:31:23;;;;;;;5.35;3.25;;;14.80;99.90;;;;;;10361240;28;20220;-81
2022/05/25 05:36:52;;;;;;;3.42;3.10;;;15.00;99.90;;;;;;10346177;28;20236;-80
2022/05/25 05:42:17;;;;;;;4.05;3.65;;;15.10;99.90;;;;;;10332700;28;20291;-80
2022/05/25 05:47:45;;;;;;;4.00;3.60;;;15.40;99.90;;;;;;10345673;28;20194;-80
2022/05/25 05:53:09;;;;;;;7.65;4.28;;;15.50;99.90;;;;;;10361043;28;20197;-81
2022/05/25 05:58:30;;;;;;;4.55;4.15;;;15.50;99.90;;;;;;10331894;28;20208;-80
2022/05/25 06:03:51;;;;;;;5.53;4.20;;;15.60;99.90;;;;;;10359474;28;20210;-80
2022/05/25 06:09:13;;;;;;;5.40;3.60;;;15.80;99.90;;;;;;10345025;28;20417;-81
2022/05/25 06:14:34;;;;;;;4.55;3.50;;;15.80;99.90;;;;;;10358860;28;20200;-81
2022/05/25 06:19:55;;;;;;;4.75;4.22;;;15.80;99.90;;;;;;10358306;28;20209;-82
2022/05/25 06:25:18;;;;;;;6.05;4.30;;;16.00;99.90;;;;;;10344996;28;20468;-80
2022/05/25 06:30:41;;;;;;;4.65;3.80;;;16.10;99.90;;;;;;10357849;28;20228;-81
2022/05/25 06:36:14;;;;;;;7.45;3.95;;;16.10;99.90;;;;;;10344223;28;20235;-81
2022/05/25 06:41:36;;;;;;;5.85;3.58;;;16.30;99.90;;;;;;10343701;28;20198;-81
2022/05/25 06:46:57;;;;;;;3.78;3.47;;;17.20;99.90;;;;;;10357855;28;20198;-81
2022/05/25 06:52:20;;;;;;;3.67;3.22;;;18.20;1.00;;;;;;10343728;28;20229;-81
2022/05/25 06:57:42;;;;;;;5.82;4.07;;;18.70;1.00;;;;;;10357929;28;20444;-82
2022/05/25 07:03:09;;;;;;;5.95;4.15;;;18.10;1.00;;;;;;10314368;28;20237;-82
2022/05/25 07:08:30;;;;;;;5.45;4.93;;;17.70;1.00;;;;;;10331295;28;20563;-84
2022/05/25 07:13:52;;;;;;;3.72;3.42;;;17.60;1.00;;;;;;10328839;28;20201;-83
2022/05/25 07:19:14;;;;;;;5.15;3.85;;;17.40;1.00;;;;;;10323836;28;20280;-82
2022/05/25 07:24:35;;;;;;;7.07;4.80;;;17.30;1.00;;;;;;10337640;28;20206;-85
2022/05/25 07:29:57;;;;;;;7.47;4.43;;;17.00;1.00;;;;;;10349722;28;20237;-90
2022/05/25 07:35:18;;;;;;;5.75;5.15;;;16.90;1.00;;;;;;10337119;28;20241;-85
2022/05/25 07:40:41;;;;;;;4.57;4.18;;;17.00;1.00;;;;;;10352861;28;20189;-82
2022/05/25 07:46:02;;;;;;;5.00;4.57;;;17.20;1.00;;;;;;10351760;28;20212;-86
2022/05/25 07:51:26;;;;;;;9.55;5.07;;;17.30;1.00;;;;;;10323939;28;20245;-86
2022/05/25 07:56:47;;;;;;;5.10;4.53;;;17.30;1.00;;;;;;10323440;28;20206;-86
2022/05/25 08:08:06;;;;;;;5.72;5.10;;;17.20;1.00;;;;;;10353140;28;20209;-92
2022/05/25 08:13:30;;;;;;;9.20;5.25;;;16.90;1.00;;;;;;10360411;28;20209;-91
2022/05/25 08:18:51;;;;;;;4.47;4.00;;;16.80;1.00;;;;;;10352076;28;20215;-87
2022/05/25 08:24:14;;;;;;;7.43;5.10;;;16.70;1.00;;;;;;10351859;28;20279;-87
2022/05/25 08:29:35;;;;;;;4.68;4.28;;;16.70;1.00;;;;;;10335438;28;20236;-86
2022/05/25 08:34:57;;;;;;;5.85;4.85;;;16.70;1.00;;;;;;10337939;28;20206;-87
2022/05/25 08:40:21;;;;;;;6.95;5.22;;;16.70;1.00;;;;;;10311430;28;20201;-90
2022/05/25 08:45:45;;;;;;;4.38;3.97;;;16.60;1.00;;;;;;10315558;28;20445;-91
2022/05/25 08:51:11;;;;;;;5.38;4.22;;;16.60;1.00;;;;;;10335339;28;20245;-86
2022/05/25 08:56:47;;;;;;;4.85;4.03;;;16.60;1.00;;;;;;10336361;28;20197;-87
2022/05/25 09:02:25;;;;;;;5.38;4.22;;;16.60;1.00;;;;;;10322459;28;20276;-89
2022/05/25 09:07:49;;;;;;;5.90;4.90;;;16.70;1.00;;;;;;10334830;28;20251;-86
2022/05/25 09:13:25;;;;;;;8.40;5.30;;;16.60;1.00;;;;;;10324116;28;20412;-85
2022/05/25 09:18:46;;;;;;;5.88;4.25;;;16.50;1.00;;;;;;10309519;28;20214;-88
2022/05/25 09:24:12;;;;;;;5.72;4.32;;;16.50;1.00;;;;;;10338918;28;20277;-88
2022/05/25 09:29:34;;;;;;;5.30;4.50;;;16.60;1.00;;;;;;10342745;28;20303;-89
2022/05/25 09:35:04;;;;;;;6.53;4.35;;;16.60;1.00;;;;;;10342696;28;20212;-85
2022/05/25 09:40:33;;;;;;;4.53;3.50;;;16.60;1.00;;;;;;10341895;28;20412;-89
2022/05/25 09:45:58;;;;;;;5.95;4.85;;;16.50;1.00;;;;;;10330507;28;20220;-86
2022/05/25 09:51:22;;;;;;;3.95;3.60;;;16.40;1.00;;;;;;10328980;28;20608;-86
2022/05/25 09:56:52;;;;;;;6.18;4.97;;;16.40;1.00;;;;;;10343529;28;20198;-83
2022/05/25 10:02:24;;;;;;;4.93;4.43;;;16.60;1.00;;;;;;10301882;28;20299;-83
2022/05/25 10:07:53;;;;;;;4.53;4.03;;;16.60;1.00;;;;;;10323752;28;20223;-84
2022/05/25 10:13:19;;;;;;;5.07;3.92;;;16.60;1.00;;;;;;10341021;28;20248;-81
2022/05/25 10:18:45;;;;;;;3.60;3.30;;;16.70;1.00;;;;;;10354573;28;20201;-83
2022/05/25 10:24:30;;;;;;;4.13;3.72;;;16.80;1.00;;;;;;10354884;28;20200;-84
2022/05/25 10:41:39;;;;;;;4.50;4.10;;;16.80;1.00;;;;;;10351083;28;20214;-85
2022/05/25 10:47:00;;;;;;;7.65;5.75;;;16.90;1.00;;;;;;10325653;28;20272;-82
2022/05/25 10:52:32;;;;;;;5.70;4.47;;;17.00;1.00;;;;;;10353126;28;20236;-84
2022/05/25 10:58:37;;;;;;;3.50;3.20;;;17.10;1.00;;;;;;10352301;28;20205;-84
2022/05/25 11:04:36;;;;;;;5.88;3.63;;;17.10;1.00;;;;;;10324475;28;20210;-85
2022/05/25 11:10:12;;;;;;;4.20;3.47;;;17.10;1.00;;;;;;10322884;28;20444;-83
2022/05/25 11:16:04;;;;;;;3.80;3.50;;;17.10;1.00;;;;;;10318376;28;20294;-81
2022/05/25 11:21:53;;;;;;;3.53;3.22;;;17.20;1.00;;;;;;10323745;28;20213;-83
2022/05/25 11:27:35;;;;;;;4.45;3.28;;;17.30;1.00;;;;;;10350675;28;20248;-83
2022/05/25 11:33:35;;;;;;;8.55;6.70;;;17.40;1.00;;;;;;10350660;28;20444;-83
2022/05/25 11:39:43;;;;;;;6.47;4.70;;;17.90;1.00;;;;;;10325700;28;20225;-82
2022/05/25 11:45:06;;;;;;;4.50;3.90;;;18.20;1.00;;;;;;10298514;28;20509;-83
2022/05/25 11:50:46;;;;;;;4.97;4.22;;;18.10;1.00;;;;;;10335649;28;20237;-82
2022/05/25 11:56:23;;;;;;;9.15;4.05;;;18.10;1.00;;;;;;10322455;28;20206;-82
2022/05/25 12:01:57;;;;;;;6.00;4.70;;;18.40;1.00;;;;;;10349513;28;20205;-82
2022/05/25 12:07:55;;;;;;;4.50;4.05;;;19.30;1.00;;;;;;10325640;28;20255;-82
2022/05/25 12:13:35;;;;;;;5.32;4.32;;;19.60;1.00;;;;;;10350632;28;20276;-85
2022/05/25 12:19:19;;;;;;;3.85;3.45;;;20.10;1.00;;;;;;10322157;28;20212;-87
2022/05/25 12:24:47;;;;;;;5.05;4.03;;;19.80;1.00;;;;;;10336184;28;20216;-81
2022/05/25 12:30:15;;;;;;;7.50;3.63;;;19.20;1.00;;;;;;10334838;28;20446;-80
2022/05/25 12:35:39;;;;;;;3.55;3.08;;;18.80;1.00;;;;;;10335409;28;20237;-82
2022/05/25 12:41:36;;;;;;;4.50;3.42;;;18.50;1.00;;;;;;10320062;28;20201;-80
2022/05/25 12:53:28;;;;;;;3.42;2.95;;;17.70;1.00;;;;;;10348151;28;20230;-81
2022/05/25 12:58:51;;;;;;;6.28;2.83;;;17.20;1.00;;;;;;10305820;28;20219;-89
2022/05/25 13:04:15;;;;;;;4.50;3.35;;;16.90;1.00;;;;;;10338985;28;20225;-81
2022/05/25 13:09:42;;;;;;;5.78;3.33;;;16.80;1.00;;;;;;10315246;28;20315;-81
2022/05/25 13:15:24;;;;;;;3.42;2.60;;;16.60;1.00;;;;;;10352818;28;20247;-82
2022/05/25 13:20:48;;;;;;;5.70;3.30;;;16.60;1.00;;;;;;10333604;28;20536;-80
2022/05/25 13:26:11;;;;;;;5.88;3.60;;;16.60;1.00;;;;;;10322563;28;20212;-89
2022/05/25 13:31:54;;;;;;;5.38;3.15;;;16.40;13.00;;;;;;10338424;28;20232;-80
2022/05/25 13:37:15;;;;;;;5.22;3.45;;;16.20;47.00;;;;;;10355298;28;20233;-80
2022/05/25 13:42:44;;;;;;;6.82;3.45;;;16.00;21.10;;;;;;10355586;28;20207;-80
2022/05/25 13:48:11;;;;;;;8.38;3.63;;;15.50;39.20;;;;;;10353955;28;20221;-80
2022/05/25 13:53:38;;;;;;;4.75;2.53;;;14.90;95.90;;;;;;10327275;28;20247;-79
2022/05/25 13:59:05;;;;;;;3.20;2.03;;;14.50;96.20;;;;;;10326412;28;20208;-82
2022/05/25 14:04:27;;;;;;;4.10;2.22;;;14.10;96.20;;;;;;10340895;28;20254;-79
2022/05/25 14:15:30;;;;;;;2.55;1.67;;;14.00;99.90;;;;;;10353034;28;20213;-80
2022/05/25 14:20:51;;;;;;;8.00;4.80;;;14.30;76.10;;;;;;10336236;28;20192;-80
2022/05/25 14:26:13;;;;;;;10.23;5.25;;;14.60;78.80;;;;;;10339378;28;20212;-80
2022/05/25 14:31:49;;;;;;;8.35;4.97;;;14.70;42.40;;;;;;10338403;28;20236;-81
2022/05/25 14:37:12;;;;;;;13.77;10.25;;;15.00;53.40;;;;;;10338653;28;20236;-80
2022/05/25 14:42:58;;;;;;;9.63;7.57;;;15.10;24.30;;;;;;10338512;28;20237;-79
2022/05/25 14:48:21;;;;;;;5.70;5.13;;;15.50;45.60;;;;;;10351926;28;20552;-80
2022/05/25 14:53:43;;;;;;;10.40;4.05;;;15.80;99.90;;;;;;10352097;28;20232;-81
2022/05/25 14:59:04;;;;;;;14.43;7.45;;;16.00;1.00;;;;;;10334980;28;20239;-85
2022/05/25 15:04:37;;;;;;;4.53;2.90;;;16.10;1.00;;;;;;10324859;28;20243;-82
2022/05/25 15:10:10;;;;;;;4.30;2.80;;;16.10;1.00;;;;;;10315077;28;20225;-80
2022/05/25 15:21:12;;;;;;;6.53;3.38;;;16.10;1.00;;;;;;10314781;28;20436;-79
2022/05/25 15:26:58;;;;;;;18.92;8.65;;;16.00;99.90;;;;;;10315450;28;20204;-79
2022/05/25 15:32:19;;;;;;;7.68;3.53;;;15.90;99.90;;;;;;10323156;28;20232;-81
2022/05/25 15:37:52;;;;;;;2.78;1.85;;;16.10;99.90;;;;;;10328339;28;20241;-79
2022/05/25 15:43:15;;;;;;;5.55;2.78;;;16.10;1.00;;;;;;10355598;28;20504;-81
2022/05/25 15:48:39;;;;;;;2.55;1.77;;;16.10;1.00;;;;;;10341941;28;20230;-80
2022/05/25 15:54:05;;;;;;;4.82;2.65;;;16.10;1.00;;;;;;10355279;28;20248;-80
2022/05/25 15:59:27;;;;;;;5.00;3.22;;;16.10;1.00;;;;;;10327584;28;20201;-80
2022/05/25 16:04:48;;;;;;;3.03;1.95;;;16.10;1.00;;;;;;10339044;28;20456;-81
2022/05/25 16:10:09;;;;;;;2.90;2.20;;;16.00;1.00;;;;;;10327165;28;20222;-79
2022/05/25 16:15:31;;;;;;;5.68;2.83;;;16.00;1.00;;;;;;10341039;28;20199;-80
2022/05/25 16:20:52;;;;;;;3.55;2.28;;;15.90;1.00;;;;;;10340721;28;20280;-79
2022/05/25 16:26:14;;;;;;;4.38;2.20;;;15.90;1.00;;;;;;10340359;28;20210;-79
2022/05/25 16:31:37;;;;;;;3.20;2.65;;;15.80;1.00;;;;;;10340657;28;20242;-79
2022/05/25 16:36:59;;;;;;;3.35;1.88;;;15.80;1.00;;;;;;10340457;28;20245;-79
2022/05/25 16:42:20;;;;;;;3.25;1.30;;;15.70;1.00;;;;;;10326786;28;20232;-79
2022/05/25 16:47:41;;;;;;;3.60;1.10;;;15.70;1.00;;;;;;10353790;28;20223;-80
2022/05/25 16:53:03;;;;;;;3.20;0.95;;;14.90;99.90;;;;;;10353984;28;20235;-80
2022/05/25 16:58:25;;;;;;;3.35;1.58;;;14.00;99.90;;;;;;10353572;28;20209;-79
2022/05/25 17:03:47;;;;;;;1.92;1.17;;;13.50;72.70;;;;;;10353512;28;20201;-79
2022/05/25 17:09:08;;;;;;;5.05;2.47;;;13.10;93.50;;;;;;10316386;28;20216;-79
2022/05/25 17:14:29;;;;;;;3.30;1.92;;;12.80;99.90;;;;;;10313645;28;20233;-79
2022/05/25 17:25:31;;;;;;;3.40;2.53;;;12.60;99.90;;;;;;10299418;28;20203;-79
2022/05/25 17:30:53;;;;;;;3.65;2.72;;;12.60;99.90;;;;;;10313410;28;20304;-80
2022/05/25 17:41:58;;;;;;;5.37;3.67;;;12.70;99.90;;;;;;10352965;28;20376;-79
2022/05/25 17:47:20;;;;;;;6.13;3.50;;;12.80;99.90;;;;;;10345674;28;20391;-79
2022/05/25 17:52:49;;;;;;;6.03;3.40;;;12.90;99.90;;;;;;10359888;28;20232;-80
2022/05/25 17:58:13;;;;;;;5.00;3.63;;;13.00;99.90;;;;;;10359901;28;20215;-79
2022/05/25 18:03:34;;;;;;;3.67;3.00;;;13.20;99.90;;;;;;10332303;28;20218;-80
2022/05/25 18:09:03;;;;;;;7.10;5.38;;;13.20;99.90;;;;;;10323792;28;20215;-79
2022/05/25 18:14:34;;;;;;;7.78;4.90;;;13.20;93.90;;;;;;10307841;28;20252;-79
2022/05/25 18:19:55;;;;;;;8.50;5.40;;;13.10;99.90;;;;;;10318599;28;20383;-79
2022/05/25 18:25:17;;;;;;;8.95;4.70;;;13.00;99.90;;;;;;10318664;28;20200;-80
2022/05/25 18:30:38;;;;;;;6.57;3.85;;;13.00;79.40;;;;;;10318091;28;20413;-78
2022/05/25 18:36:00;;;;;;;8.85;5.97;;;13.10;99.90;;;;;;10354971;28;20240;-80
2022/05/25 18:41:23;;;;;;;12.18;8.05;;;13.10;99.90;;;;;;10359508;28;20275;-80
2022/05/25 18:46:45;;;;;;;7.63;5.07;;;12.90;99.90;;;;;;10344433;28;20211;-79
2022/05/25 18:52:07;;;;;;;16.08;10.23;;;12.80;99.90;;;;;;10357961;28;20238;-79
2022/05/25 18:57:28;;;;;;;19.80;11.68;;;12.60;99.90;;;;;;10357378;28;20251;-79
2022/05/25 19:02:49;;;;;;;14.32;8.77;;;12.60;99.90;;;;;;10343472;28;20198;-79
2022/05/25 19:08:11;;;;;;;15.73;7.38;;;12.50;99.90;;;;;;10332832;28;20215;-79
2022/05/25 19:13:32;;;;;;;9.95;6.32;;;12.40;99.90;;;;;;10342938;28;20234;-79
2022/05/25 19:18:54;;;;;;;6.70;4.78;;;12.40;99.90;;;;;;10356378;28;20202;-80
2022/05/25 19:24:19;;;;;;;6.20;3.83;;;12.50;99.90;;;;;;10342837;28;20220;-79
2022/05/25 19:29:41;;;;;;;7.57;4.18;;;12.50;99.90;;;;;;10342549;28;20501;-80
2022/05/25 19:35:02;;;;;;;7.03;3.92;;;12.40;99.90;;;;;;10341961;28;20197;-79
2022/05/25 19:40:29;;;;;;;14.23;8.25;;;12.30;99.90;;;;;;10356046;28;20197;-79
2022/05/25 19:45:52;;;;;;;18.67;8.95;;;12.20;99.90;;;;;;10341763;28;20205;-79
2022/05/25 19:51:13;;;;;;;36.27;17.83;;;12.10;99.90;;;;;;10341680;28;20546;-79
2022/05/25 19:56:34;;;;;;;23.98;14.13;;;12.00;99.90;;;;;;10328084;28;20518;-79
2022/05/25 20:01:55;;;;;;;17.90;11.50;;;11.90;99.90;;;;;;10301116;28;20210;-80
2022/05/25 20:07:17;;;;;;;15.90;10.60;;;11.80;99.90;;;;;;10326246;28;20202;-79
2022/05/25 20:12:39;;;;;;;15.43;10.37;;;11.90;99.90;;;;;;10314355;28;20230;-79
2022/05/25 20:18:03;;;;;;;12.03;8.33;;;11.80;99.90;;;;;;10314086;28;20201;-79
2022/05/25 20:23:24;;;;;;;11.57;8.48;;;11.80;99.90;;;;;;10314410;28;20531;-80
2022/05/25 20:28:46;;;;;;;21.30;10.97;;;11.70;99.90;;;;;;10302803;28;20500;-79
2022/05/25 20:34:07;;;;;;;19.42;13.52;;;11.80;99.90;;;;;;10335760;28;20228;-79
2022/05/25 20:39:29;;;;;;;17.63;11.70;;;11.70;99.90;;;;;;10340235;28;20234;-80
2022/05/25 20:44:54;;;;;;;15.80;10.20;;;11.70;99.90;;;;;;10340090;28;20201;-79
2022/05/25 20:50:16;;;;;;;10.93;7.45;;;11.60;99.90;;;;;;10355027;28;20194;-79
2022/05/25 20:55:37;;;;;;;8.50;6.23;;;11.50;99.90;;;;;;10326738;28;20204;-79
2022/05/25 21:00:59;;;;;;;9.40;6.00;;;11.40;99.90;;;;;;10353829;28;20205;-79
2022/05/25 21:06:20;;;;;;;7.80;6.20;;;11.30;99.90;;;;;;10325137;28;20216;-79
2022/05/25 21:11:41;;;;;;;11.80;7.40;;;11.30;99.90;;;;;;10315961;28;20232;-78
2022/05/25 21:17:08;;;;;;;9.97;7.40;;;11.20;99.90;;;;;;10299883;28;20214;-79
2022/05/25 21:22:29;;;;;;;9.07;6.90;;;11.10;99.90;;;;;;10320294;28;20209;-78
2022/05/25 21:27:51;;;;;;;10.63;7.63;;;11.10;99.90;;;;;;10320800;28;20202;-79
2022/05/25 21:33:12;;;;;;;13.63;7.90;;;11.10;99.90;;;;;;10335308;28;20231;-79
2022/05/25 21:38:34;;;;;;;8.27;7.23;;;11.10;99.90;;;;;;10360943;28;20557;-79
2022/05/25 21:43:56;;;;;;;9.03;6.60;;;11.10;99.90;;;;;;10360612;28;20200;-79
2022/05/25 21:54:57;;;;;;;11.27;7.93;;;11.00;99.90;;;;;;10360297;28;20531;-79
2022/05/25 22:00:27;;;;;;;10.97;7.50;;;11.00;99.90;;;;;;10359828;28;20196;-79
2022/05/25 22:05:48;;;;;;;11.77;7.33;;;11.00;99.90;;;;;;10336068;28;20209;-78
2022/05/25 22:11:09;;;;;;;19.10;7.77;;;10.90;99.90;;;;;;10321650;28;20237;-78
2022/05/25 22:16:30;;;;;;;11.23;5.83;;;10.90;99.90;;;;;;10305465;28;20387;-78
2022/05/25 22:21:52;;;;;;;8.50;5.17;;;10.90;99.90;;;;;;10319004;28;20402;-79
2022/05/25 22:27:13;;;;;;;5.77;4.47;;;10.90;99.90;;;;;;10318716;28;20193;-78
2022/05/25 22:32:35;;;;;;;5.13;3.53;;;10.80;99.90;;;;;;10313984;28;20258;-79
2022/05/25 22:38:21;;;;;;;4.70;3.60;;;10.80;99.90;;;;;;10348865;28;20233;-78
2022/05/25 22:43:43;;;;;;;6.00;4.17;;;10.70;99.90;;;;;;10344500;28;20329;-79
2022/05/25 22:49:04;;;;;;;6.87;4.80;;;10.70;99.90;;;;;;10344364;28;20424;-79
2022/05/25 22:54:25;;;;;;;4.23;3.83;;;10.70;99.90;;;;;;10357548;28;20232;-79
2022/05/25 22:59:47;;;;;;;5.63;4.30;;;10.70;99.90;;;;;;10357643;28;20394;-79
2022/05/25 23:05:08;;;;;;;5.10;3.97;;;10.60;99.90;;;;;;10352679;28;20202;-78
2022/05/25 23:10:30;;;;;;;5.87;4.10;;;10.60;99.90;;;;;;10316825;28;20204;-79
2022/05/25 23:15:51;;;;;;;5.23;4.20;;;10.60;99.90;;;;;;10316916;28;20206;-79
2022/05/25 23:21:13;;;;;;;6.50;4.00;;;10.50;99.90;;;;;;10317013;28;20189;-79
2022/05/25 23:26:34;;;;;;;5.57;3.83;;;10.50;99.90;;;;;;10316493;28;20556;-79
2022/05/25 23:31:55;;;;;;;4.10;3.70;;;10.50;99.90;;;;;;10320831;28;20434;-79
2022/05/25 23:37:16;;;;;;;7.40;4.70;;;10.50;99.90;;;;;;10355798;28;20234;-79
2022/05/25 23:48:17;;;;;;;4.87;4.13;;;10.40;99.90;;;;;;10355743;28;20227;-79
2022/05/25 23:53:39;;;;;;;5.50;5.00;;;10.30;99.90;;;;;;10328378;28;20235;-79
2022/05/25 23:59:00;;;;;;;5.73;4.93;;;10.30;99.90;;;;;;10341816;28;20362;-79
